createdAt,value
2019-03-31T00:00:01.502Z,5.10
2019-03-31T00:02:29.882Z,4.90
2019-03-31T00:07:35.407Z,4.50
2019-03-31T00:10:07.004Z,4.30
2019-03-31T00:12:38.253Z,4.20
2019-03-31T00:15:09.777Z,4.10
2019-03-31T00:17:38.201Z,4.00
2019-03-31T00:20:10.177Z,3.90
2019-03-31T00:22:38.569Z,3.80
2019-03-31T00:25:20.090Z,3.80
2019-03-31T00:27:50.117Z,3.80
2019-03-31T00:30:25.731Z,3.80
2019-03-31T00:32:58.541Z,3.70
2019-03-31T00:35:26.926Z,3.70
2019-03-31T00:37:58.049Z,3.70
2019-03-31T00:40:26.441Z,3.80
2019-03-31T00:42:56.678Z,3.80
2019-03-31T00:45:25.066Z,3.90
2019-03-31T00:48:02.114Z,3.90
2019-03-31T00:50:30.808Z,3.90
2019-03-31T00:53:00.634Z,3.80
2019-03-31T00:55:33.575Z,3.80
2019-03-31T00:58:04.670Z,3.80
2019-03-31T01:00:46.653Z,3.90
2019-03-31T01:03:35.362Z,3.90
2019-03-31T01:06:09.208Z,3.90
2019-03-31T01:08:37.590Z,3.80
2019-03-31T01:11:10.735Z,3.80
2019-03-31T01:13:40.749Z,3.80
2019-03-31T01:16:14.039Z,3.80
2019-03-31T01:18:51.799Z,3.70
2019-03-31T01:21:20.853Z,3.70
2019-03-31T01:23:55.021Z,3.60
2019-03-31T01:26:26.329Z,3.60
2019-03-31T01:28:54.794Z,3.70
2019-03-31T01:31:28.302Z,3.70
2019-03-31T01:33:57.161Z,3.80
2019-03-31T01:36:27.016Z,3.70
2019-03-31T01:38:56.711Z,3.60
2019-03-31T01:41:27.935Z,3.40
2019-03-31T01:43:56.754Z,3.30
2019-03-31T01:46:31.509Z,3.20
2019-03-31T01:49:00.064Z,3.10
2019-03-31T01:51:31.140Z,2.90
2019-03-31T01:53:59.522Z,2.90
2019-03-31T01:56:30.874Z,2.80
2019-03-31T01:58:59.285Z,2.90
2019-03-31T02:01:29.381Z,2.90
2019-03-31T02:04:00.403Z,3.00
2019-03-31T02:06:33.007Z,3.00
2019-03-31T02:09:01.585Z,3.10
2019-03-31T02:11:36.090Z,2.90
2019-03-31T02:14:05.249Z,2.80
2019-03-31T02:16:36.768Z,2.80
2019-03-31T02:19:05.197Z,2.80
2019-03-31T02:21:35.117Z,2.80
2019-03-31T02:24:03.514Z,2.80
2019-03-31T02:26:34.961Z,2.90
2019-03-31T02:29:04.025Z,2.80
2019-03-31T02:31:32.417Z,2.70
2019-03-31T02:34:00.805Z,2.60
2019-03-31T02:36:32.109Z,2.50
2019-03-31T02:39:03.395Z,2.40
2019-03-31T02:41:32.248Z,2.30
2019-03-31T02:44:11.354Z,2.30
2019-03-31T02:46:39.729Z,2.30
2019-03-31T02:49:09.261Z,2.20
2019-03-31T02:51:39.684Z,2.20
2019-03-31T02:54:12.994Z,2.20
2019-03-31T02:56:45.918Z,2.20
2019-03-31T02:59:18.538Z,2.10
2019-03-31T03:01:49.906Z,2.00
2019-03-31T03:04:22.845Z,1.90
2019-03-31T03:06:54.225Z,1.80
2019-03-31T03:09:27.564Z,1.90
2019-03-31T03:12:03.652Z,1.90
2019-03-31T03:14:34.849Z,2.00
2019-03-31T03:17:03.241Z,2.00
2019-03-31T03:19:31.613Z,2.00
2019-03-31T03:22:00.077Z,2.10
2019-03-31T03:24:30.105Z,2.10
2019-03-31T03:26:58.502Z,2.20
2019-03-31T03:29:29.437Z,2.30
2019-03-31T03:32:02.123Z,2.50
2019-03-31T03:34:32.236Z,2.60
2019-03-31T03:37:00.894Z,2.80
2019-03-31T03:39:29.271Z,2.80
2019-03-31T03:41:57.665Z,2.70
2019-03-31T03:44:26.999Z,2.70
2019-03-31T03:46:55.385Z,2.60
2019-03-31T03:49:32.627Z,2.60
2019-03-31T03:52:00.662Z,2.60
2019-03-31T03:54:32.019Z,2.60
2019-03-31T03:57:03.174Z,2.50
2019-03-31T03:59:31.570Z,2.40
2019-03-31T04:02:00.197Z,2.20
2019-03-31T04:04:31.039Z,2.00
2019-03-31T04:06:59.421Z,1.80
2019-03-31T04:09:32.073Z,1.70
2019-03-31T04:12:00.641Z,1.60
2019-03-31T04:14:29.270Z,1.50
2019-03-31T04:16:57.649Z,1.50
2019-03-31T04:19:26.037Z,1.40
2019-03-31T04:21:57.149Z,1.40
2019-03-31T04:24:28.192Z,1.30
2019-03-31T04:26:59.434Z,1.20
2019-03-31T04:29:34.033Z,1.10
2019-03-31T04:32:05.381Z,1.10
2019-03-31T04:34:41.627Z,1.10
2019-03-31T04:37:15.921Z,1.10
2019-03-31T04:39:44.300Z,1.10
2019-03-31T04:42:20.352Z,1.10
2019-03-31T04:44:48.987Z,1.20
2019-03-31T04:47:17.361Z,1.30
2019-03-31T04:49:48.466Z,1.30
2019-03-31T04:52:22.807Z,1.30
2019-03-31T04:54:51.203Z,1.30
2019-03-31T04:57:22.817Z,1.40
2019-03-31T04:59:51.207Z,1.40
2019-03-31T05:02:20.615Z,1.40
2019-03-31T05:04:53.466Z,1.40
2019-03-31T05:07:21.852Z,1.40
2019-03-31T05:09:52.921Z,1.40
2019-03-31T05:12:21.409Z,1.40
2019-03-31T05:14:49.805Z,1.30
2019-03-31T05:17:18.204Z,1.40
2019-03-31T05:19:50.991Z,1.40
2019-03-31T05:22:19.385Z,1.40
2019-03-31T05:24:49.409Z,1.50
2019-03-31T05:27:19.098Z,1.60
2019-03-31T05:29:47.554Z,1.60
2019-03-31T05:32:19.512Z,1.60
2019-03-31T05:34:47.878Z,1.70
2019-03-31T05:37:16.278Z,1.80
2019-03-31T05:39:44.650Z,1.80
2019-03-31T05:42:15.724Z,1.90
2019-03-31T05:44:48.441Z,1.90
2019-03-31T05:47:18.558Z,2.00
2019-03-31T05:49:46.953Z,2.00
2019-03-31T05:52:16.985Z,2.10
2019-03-31T05:54:45.381Z,2.20
2019-03-31T05:57:14.012Z,2.30
2019-03-31T05:59:45.415Z,2.50
2019-03-31T06:02:13.793Z,2.60
2019-03-31T06:04:42.202Z,2.70
2019-03-31T06:07:12.486Z,2.80
2019-03-31T06:09:40.877Z,3.10
2019-03-31T06:12:10.814Z,4.00
2019-03-31T06:14:41.909Z,5.30
2019-03-31T06:17:10.302Z,6.60
2019-03-31T06:19:40.661Z,7.60
2019-03-31T06:22:10.681Z,8.60
2019-03-31T06:24:40.945Z,9.60
2019-03-31T06:27:09.590Z,10.50
2019-03-31T06:29:40.924Z,11.40
2019-03-31T06:32:09.336Z,12.30
2019-03-31T06:34:47.597Z,12.80
2019-03-31T06:37:15.493Z,13.00
2019-03-31T06:39:51.469Z,13.00
2019-03-31T06:42:31.741Z,13.10
2019-03-31T06:45:00.139Z,13.30
2019-03-31T06:47:31.914Z,13.30
2019-03-31T06:50:08.677Z,13.90
2019-03-31T06:52:37.066Z,14.20
2019-03-31T06:55:14.674Z,14.40
2019-03-31T06:57:46.041Z,14.50
2019-03-31T07:00:18.622Z,14.40
2019-03-31T07:02:47.805Z,14.10
2019-03-31T07:05:25.098Z,14.10
2019-03-31T07:07:58.086Z,14.20
2019-03-31T07:10:26.505Z,14.20
2019-03-31T07:12:55.018Z,14.40
2019-03-31T07:15:30.867Z,14.30
2019-03-31T07:18:02.112Z,14.30
2019-03-31T07:20:32.282Z,14.30
2019-03-31T07:23:02.326Z,14.30
2019-03-31T07:25:30.718Z,14.70
2019-03-31T07:27:59.113Z,15.00
2019-03-31T07:30:29.144Z,15.50
2019-03-31T07:33:03.497Z,15.80
2019-03-31T07:35:31.889Z,15.80
2019-03-31T07:38:00.421Z,15.90
2019-03-31T07:40:31.483Z,16.20
2019-03-31T07:43:00.033Z,16.60
2019-03-31T07:45:31.549Z,17.00
2019-03-31T07:48:02.637Z,17.00
2019-03-31T07:50:31.304Z,16.90
2019-03-31T07:53:02.490Z,17.40
2019-03-31T07:55:30.950Z,17.90
2019-03-31T07:57:59.350Z,17.80
2019-03-31T08:00:28.588Z,17.90
2019-03-31T08:03:00.141Z,18.10
2019-03-31T08:05:33.422Z,18.40
2019-03-31T08:08:02.653Z,18.60
2019-03-31T08:10:33.765Z,18.50
2019-03-31T08:13:05.830Z,18.30
2019-03-31T08:15:40.205Z,18.80
2019-03-31T08:18:08.614Z,19.40
2019-03-31T08:20:40.065Z,19.50
2019-03-31T08:23:13.298Z,19.00
2019-03-31T08:25:41.685Z,19.10
2019-03-31T08:28:12.101Z,19.10
2019-03-31T08:30:42.373Z,18.80
2019-03-31T08:33:10.774Z,19.00
2019-03-31T08:35:47.532Z,19.00
2019-03-31T08:38:13.520Z,19.10
2019-03-31T08:40:42.326Z,19.00
2019-03-31T08:43:12.359Z,18.80
2019-03-31T08:45:42.398Z,19.00
2019-03-31T08:48:12.421Z,19.10
2019-03-31T08:50:43.553Z,19.00
2019-03-31T08:53:13.579Z,19.20
2019-03-31T08:55:41.965Z,19.40
2019-03-31T08:58:10.605Z,19.70
2019-03-31T09:00:40.625Z,19.50
2019-03-31T09:03:09.034Z,19.80
2019-03-31T09:05:43.029Z,19.90
2019-03-31T09:08:13.069Z,20.20
2019-03-31T09:10:51.725Z,19.90
2019-03-31T09:13:23.063Z,19.90
2019-03-31T09:15:52.021Z,20.40
2019-03-31T09:18:20.456Z,20.70
2019-03-31T09:20:49.089Z,20.80
2019-03-31T09:23:23.210Z,20.90
2019-03-31T09:25:52.461Z,21.20
2019-03-31T09:28:20.858Z,21.50
2019-03-31T09:30:50.894Z,21.70
2019-03-31T09:33:20.542Z,22.00
2019-03-31T09:35:48.967Z,22.10
2019-03-31T09:38:17.353Z,21.50
2019-03-31T09:40:50.009Z,21.50
2019-03-31T09:43:18.405Z,21.10
2019-03-31T09:45:46.969Z,21.40
2019-03-31T09:48:21.525Z,22.00
2019-03-31T09:50:56.431Z,22.30
2019-03-31T09:53:24.972Z,22.90
2019-03-31T09:55:55.001Z,22.40
2019-03-31T09:58:23.494Z,22.60
2019-03-31T10:00:53.342Z,22.90
2019-03-31T10:03:25.601Z,23.10
2019-03-31T10:05:53.998Z,23.60
2019-03-31T10:08:22.642Z,23.50
2019-03-31T10:10:51.032Z,23.10
2019-03-31T10:13:20.969Z,22.90
2019-03-31T10:15:49.434Z,22.40
2019-03-31T10:18:21.233Z,22.20
2019-03-31T10:20:52.548Z,22.10
2019-03-31T10:23:20.945Z,22.70
2019-03-31T10:25:55.184Z,23.20
2019-03-31T10:28:26.415Z,23.50
2019-03-31T10:30:58.620Z,23.70
2019-03-31T10:33:26.993Z,23.70
2019-03-31T10:35:57.023Z,24.20
2019-03-31T10:38:25.408Z,24.90
2019-03-31T10:41:03.399Z,25.40
2019-03-31T10:43:31.808Z,25.30
2019-03-31T10:46:00.257Z,25.20
2019-03-31T10:48:31.870Z,25.10
2019-03-31T10:51:01.282Z,25.00
2019-03-31T10:53:29.906Z,25.50
2019-03-31T10:56:01.804Z,25.60
2019-03-31T10:58:35.857Z,26.00
2019-03-31T11:01:05.797Z,26.00
2019-03-31T11:03:46.026Z,25.80
2019-03-31T11:06:14.427Z,25.70
2019-03-31T11:08:45.788Z,25.70
2019-03-31T11:11:14.189Z,26.10
2019-03-31T11:13:46.904Z,25.80
2019-03-31T11:16:15.451Z,25.30
2019-03-31T11:18:43.838Z,24.90
2019-03-31T11:21:28.533Z,24.20
2019-03-31T11:23:56.933Z,24.00
2019-03-31T11:26:25.321Z,24.30
2019-03-31T11:28:59.446Z,24.30
2019-03-31T11:31:33.713Z,24.40
2019-03-31T11:34:04.826Z,24.90
2019-03-31T11:36:33.213Z,25.10
2019-03-31T11:39:01.604Z,25.10
2019-03-31T11:41:31.645Z,25.30
2019-03-31T11:44:00.036Z,25.80
2019-03-31T11:46:30.081Z,26.40
2019-03-31T11:48:58.486Z,26.20
2019-03-31T11:51:26.888Z,26.30
2019-03-31T11:54:00.962Z,26.10
2019-03-31T11:56:29.353Z,25.50
2019-03-31T11:58:57.992Z,24.00
2019-03-31T12:01:29.302Z,23.10
2019-03-31T12:03:59.337Z,22.30
2019-03-31T12:06:30.725Z,21.90
2019-03-31T12:08:59.129Z,21.60
2019-03-31T12:11:27.522Z,21.60
2019-03-31T12:13:59.081Z,21.70
2019-03-31T12:16:27.460Z,22.20
2019-03-31T12:18:58.539Z,23.40
2019-03-31T12:21:26.947Z,24.20
2019-03-31T12:24:01.817Z,24.40
2019-03-31T12:26:33.156Z,24.50
2019-03-31T12:29:01.787Z,23.40
2019-03-31T12:31:33.749Z,22.80
2019-03-31T12:34:04.033Z,23.20
2019-03-31T12:36:32.886Z,24.10
2019-03-31T12:39:01.350Z,24.10
2019-03-31T12:41:30.143Z,23.30
2019-03-31T12:44:00.085Z,22.80
2019-03-31T12:46:30.125Z,23.10
2019-03-31T12:49:00.169Z,23.90
2019-03-31T12:51:28.561Z,25.00
2019-03-31T12:53:56.961Z,24.80
2019-03-31T12:56:34.164Z,24.50
2019-03-31T12:59:11.216Z,24.30
2019-03-31T13:01:39.612Z,24.80
2019-03-31T13:04:08.021Z,25.20
2019-03-31T13:06:36.661Z,25.90
2019-03-31T13:09:07.953Z,26.50
2019-03-31T13:11:39.037Z,26.80
2019-03-31T13:14:13.483Z,27.00
2019-03-31T13:16:41.938Z,26.70
2019-03-31T13:19:10.343Z,25.90
2019-03-31T13:21:38.736Z,24.90
2019-03-31T13:24:08.780Z,23.90
2019-03-31T13:26:40.140Z,23.80
2019-03-31T13:29:08.542Z,23.50
2019-03-31T13:31:37.937Z,23.00
2019-03-31T13:34:13.761Z,22.40
2019-03-31T13:36:42.405Z,21.90
2019-03-31T13:39:13.476Z,22.10
2019-03-31T13:41:42.216Z,22.80
2019-03-31T13:44:12.116Z,23.70
2019-03-31T13:46:40.529Z,24.60
2019-03-31T13:49:11.849Z,25.30
2019-03-31T13:51:40.242Z,26.00
2019-03-31T13:54:23.360Z,26.30
2019-03-31T13:56:58.813Z,26.40
2019-03-31T13:59:32.337Z,27.00
2019-03-31T14:02:02.369Z,26.80
2019-03-31T14:04:50.964Z,27.00
2019-03-31T14:07:12.619Z,26.70
2019-03-31T14:09:41.005Z,26.80
2019-03-31T14:12:11.045Z,27.00
2019-03-31T14:14:42.705Z,26.50
2019-03-31T14:17:11.129Z,26.80
2019-03-31T14:19:39.610Z,27.00
2019-03-31T14:22:10.920Z,27.20
2019-03-31T14:24:39.369Z,27.60
2019-03-31T14:27:07.761Z,28.00
2019-03-31T14:29:42.664Z,27.70
2019-03-31T14:32:13.305Z,27.60
2019-03-31T14:34:41.701Z,27.60
2019-03-31T14:37:14.863Z,27.10
2019-03-31T14:39:47.505Z,26.60
2019-03-31T14:42:18.873Z,26.10
2019-03-31T14:44:50.351Z,26.10
2019-03-31T14:47:18.738Z,26.50
2019-03-31T14:49:47.361Z,26.80
2019-03-31T14:52:26.564Z,26.20
2019-03-31T14:54:47.526Z,26.20
2019-03-31T14:57:18.635Z,26.30
2019-03-31T14:59:52.564Z,27.00
2019-03-31T15:02:21.197Z,26.70
2019-03-31T15:04:49.601Z,26.20
2019-03-31T15:07:20.713Z,25.70
2019-03-31T15:09:51.812Z,25.30
2019-03-31T15:12:20.199Z,25.20
2019-03-31T15:14:48.581Z,24.80
2019-03-31T15:17:18.788Z,25.20
2019-03-31T15:19:50.185Z,25.60
2019-03-31T15:22:21.297Z,25.60
2019-03-31T15:24:49.684Z,24.90
2019-03-31T15:27:18.089Z,24.40
2019-03-31T15:29:46.715Z,24.30
2019-03-31T15:32:17.792Z,24.50
2019-03-31T15:34:46.187Z,24.10
2019-03-31T15:37:14.583Z,23.30
2019-03-31T15:39:44.508Z,22.70
2019-03-31T15:42:14.557Z,22.00
2019-03-31T15:44:46.352Z,21.80
2019-03-31T15:47:14.809Z,21.60
2019-03-31T15:49:53.760Z,21.20
2019-03-31T15:52:22.168Z,20.80
2019-03-31T15:54:50.561Z,19.70
2019-03-31T15:57:18.949Z,18.40
2019-03-31T16:00:03.617Z,17.60
2019-03-31T16:02:33.894Z,17.20
2019-03-31T16:05:12.444Z,16.80
2019-03-31T16:07:39.136Z,16.50
2019-03-31T16:10:09.968Z,16.30
2019-03-31T16:12:41.385Z,16.20
2019-03-31T16:15:12.325Z,16.00
2019-03-31T16:17:42.273Z,15.90
2019-03-31T16:20:14.815Z,15.90
2019-03-31T16:22:43.221Z,15.90
2019-03-31T16:25:16.623Z,15.90
2019-03-31T16:27:45.017Z,15.70
2019-03-31T16:30:18.672Z,15.50
2019-03-31T16:32:51.952Z,15.60
2019-03-31T16:35:33.179Z,15.50
2019-03-31T16:38:01.541Z,15.30
2019-03-31T16:40:30.116Z,15.10
2019-03-31T16:42:58.583Z,15.00
2019-03-31T16:45:36.463Z,14.90
2019-03-31T16:48:08.236Z,14.80
2019-03-31T16:50:39.936Z,14.70
2019-03-31T16:53:11.079Z,14.70
2019-03-31T16:55:42.792Z,14.60
2019-03-31T16:58:12.842Z,14.60
2019-03-31T17:00:44.523Z,14.60
2019-03-31T17:03:12.965Z,14.40
2019-03-31T17:05:45.977Z,14.40
2019-03-31T17:08:17.092Z,14.30
2019-03-31T17:10:47.144Z,14.20
2019-03-31T17:13:15.707Z,14.10
2019-03-31T17:15:44.136Z,14.00
2019-03-31T17:18:15.565Z,14.00
2019-03-31T17:20:48.629Z,13.90
2019-03-31T17:23:17.257Z,13.80
2019-03-31T17:25:47.353Z,13.70
2019-03-31T17:28:25.358Z,13.70
2019-03-31T17:30:54.348Z,13.60
2019-03-31T17:33:22.741Z,13.50
2019-03-31T17:35:51.185Z,13.40
2019-03-31T17:38:19.574Z,13.40
2019-03-31T17:40:48.221Z,13.40
2019-03-31T17:43:16.604Z,13.30
2019-03-31T17:45:45.300Z,13.30
2019-03-31T17:48:13.690Z,13.10
2019-03-31T17:50:43.270Z,13.10
2019-03-31T17:53:11.660Z,13.00
2019-03-31T17:55:40.057Z,12.90
2019-03-31T17:58:09.761Z,12.90
2019-03-31T18:00:39.574Z,12.80
2019-03-31T18:03:08.217Z,12.70
2019-03-31T18:05:36.861Z,12.60
2019-03-31T18:08:05.253Z,12.50
2019-03-31T18:10:35.055Z,12.50
2019-03-31T18:13:06.911Z,12.40
2019-03-31T18:15:35.306Z,12.30
2019-03-31T18:18:03.697Z,12.20
2019-03-31T18:20:33.490Z,12.10
2019-03-31T18:23:03.076Z,12.00
2019-03-31T18:25:31.443Z,11.90
2019-03-31T18:27:59.830Z,11.80
2019-03-31T18:30:29.237Z,11.70
2019-03-31T18:32:57.637Z,11.70
2019-03-31T18:35:27.025Z,11.60
2019-03-31T18:37:56.687Z,11.50
2019-03-31T18:40:34.810Z,11.40
2019-03-31T18:42:56.441Z,11.40
2019-03-31T18:45:24.847Z,11.30
2019-03-31T18:47:53.243Z,11.20
2019-03-31T18:50:21.645Z,11.10
2019-03-31T18:52:50.047Z,11.00
2019-03-31T18:55:20.395Z,11.00
2019-03-31T18:58:06.781Z,10.90
2019-03-31T19:00:48.805Z,10.90
2019-03-31T19:03:24.720Z,10.80
2019-03-31T19:06:11.437Z,10.70
2019-03-31T19:08:50.640Z,10.60
2019-03-31T19:11:26.640Z,10.50
2019-03-31T19:13:56.726Z,10.40
2019-03-31T19:16:39.042Z,10.30
2019-03-31T19:19:24.401Z,10.30
2019-03-31T19:22:03.308Z,10.20
2019-03-31T19:24:33.598Z,10.20
2019-03-31T19:27:22.028Z,10.10
2019-03-31T19:30:01.753Z,10.10
2019-03-31T19:32:31.796Z,10.00
2019-03-31T19:35:06.519Z,9.90
2019-03-31T19:37:54.420Z,9.90
2019-03-31T19:40:31.798Z,9.80
2019-03-31T19:43:04.601Z,9.80
2019-03-31T19:45:40.378Z,9.70
2019-03-31T19:48:26.677Z,9.70
2019-03-31T19:50:56.713Z,9.70
2019-03-31T19:53:32.717Z,9.70
2019-03-31T19:56:07.825Z,9.60
2019-03-31T19:58:56.749Z,9.60
2019-03-31T20:01:35.835Z,9.50
2019-03-31T20:04:11.609Z,9.50
2019-03-31T20:06:47.588Z,9.40
2019-03-31T20:09:23.109Z,9.50
2019-03-31T20:12:11.181Z,9.50
2019-03-31T20:14:50.188Z,9.40
2019-03-31T20:17:42.159Z,9.30
2019-03-31T20:20:31.600Z,9.30
2019-03-31T20:23:07.855Z,9.30
2019-03-31T20:25:43.629Z,9.20
2019-03-31T20:28:28.830Z,9.20
2019-03-31T20:31:10.513Z,9.20
2019-03-31T20:33:40.540Z,9.10
2019-03-31T20:36:26.997Z,9.00
2019-03-31T20:39:00.088Z,8.90
2019-03-31T20:41:41.929Z,8.90
2019-03-31T20:44:16.268Z,8.90
2019-03-31T20:46:46.549Z,8.90
2019-03-31T20:49:15.105Z,8.90
2019-03-31T20:51:43.496Z,8.80
2019-03-31T20:54:22.304Z,8.80
2019-03-31T20:56:52.292Z,8.80
2019-03-31T20:59:23.954Z,8.70
2019-03-31T21:01:54.521Z,8.60
2019-03-31T21:04:22.905Z,8.50
2019-03-31T21:06:54.213Z,8.50
2019-03-31T21:09:24.157Z,8.50
2019-03-31T21:11:55.157Z,8.50
2019-03-31T21:14:23.551Z,8.40
2019-03-31T21:16:53.801Z,8.40
2019-03-31T21:19:23.534Z,8.50
2019-03-31T21:21:54.617Z,8.50
2019-03-31T21:24:28.400Z,8.50
2019-03-31T21:26:59.725Z,8.50
2019-03-31T21:29:28.106Z,8.40
2019-03-31T21:32:05.648Z,8.40
2019-03-31T21:34:35.682Z,8.30
2019-03-31T21:37:07.017Z,8.30
2019-03-31T21:39:37.061Z,8.20
2019-03-31T21:42:08.779Z,8.20
2019-03-31T21:44:39.862Z,8.20
2019-03-31T21:47:08.249Z,8.20
2019-03-31T21:49:42.109Z,8.10
2019-03-31T21:52:10.830Z,8.10
2019-03-31T21:54:40.845Z,8.10
2019-03-31T21:57:09.725Z,8.00
2019-03-31T21:59:38.107Z,8.00
2019-03-31T22:02:12.172Z,7.90
2019-03-31T22:04:49.045Z,7.90
2019-03-31T22:07:20.546Z,7.90
2019-03-31T22:09:49.535Z,7.80
2019-03-31T22:12:19.546Z,7.90
2019-03-31T22:14:48.164Z,7.80
2019-03-31T22:17:16.560Z,7.70
2019-03-31T22:19:46.821Z,7.70
2019-03-31T22:22:18.110Z,7.70
2019-03-31T22:24:51.045Z,7.70
2019-03-31T22:27:19.421Z,7.70
2019-03-31T22:29:47.820Z,7.70
2019-03-31T22:32:19.247Z,7.60
2019-03-31T22:34:47.637Z,7.60
2019-03-31T22:37:16.023Z,7.50
2019-03-31T22:39:44.497Z,7.40
2019-03-31T22:42:16.661Z,7.40
2019-03-31T22:44:46.614Z,7.30
2019-03-31T22:47:15.087Z,7.30
2019-03-31T22:49:44.053Z,7.30
2019-03-31T22:52:12.951Z,7.30
2019-03-31T22:54:44.277Z,7.20
2019-03-31T22:57:15.695Z,7.20
2019-03-31T22:59:45.765Z,7.10
2019-03-31T23:02:16.958Z,7.10
2019-03-31T23:04:45.341Z,7.10
2019-03-31T23:07:13.754Z,7.20
2019-03-31T23:09:42.136Z,7.10
2019-03-31T23:12:14.277Z,7.00
2019-03-31T23:14:46.088Z,6.90
2019-03-31T23:17:14.741Z,6.90
2019-03-31T23:19:44.770Z,6.90
2019-03-31T23:22:13.393Z,6.80
2019-03-31T23:24:42.617Z,6.80
2019-03-31T23:27:11.001Z,6.80
2019-03-31T23:29:39.402Z,6.80
2019-03-31T23:32:09.266Z,6.70
2019-03-31T23:34:37.698Z,6.70
2019-03-31T23:37:12.181Z,6.60
2019-03-31T23:39:43.509Z,6.50
2019-03-31T23:42:17.740Z,6.40
2019-03-31T23:44:48.966Z,6.30
2019-03-31T23:47:17.347Z,6.30
2019-03-31T23:49:57.673Z,6.30
2019-03-31T23:52:28.475Z,6.30
2019-03-31T23:55:00.598Z,6.30
2019-03-31T23:57:42.737Z,6.30
